Time;durP1;ratioP1;P1;durP2;ratioP2;P2;SDS_P1;SDS_P2;PMS_P1;PMS_P2;Temp;Humidity;BMP_temperature;BMP_pressure;BME280_temperature;BME280_humidity;BME280_pressure;Samples;Min_cycle;Max_cycle;Signal;HPM_P1;HPM_P2
2022/10/26 00:01:28;;;;;;;;;;;20.80;51.30;;;;;;5073174;28;19925;-69
2022/10/26 00:03:55;;;;;;;;;;;20.80;51.30;;;;;;5072636;28;20021;-69
2022/10/26 00:06:23;;;;;;;;;;;20.80;51.30;;;;;;5056482;28;19970;-69
2022/10/26 00:08:50;;;;;;;;;;;20.80;51.30;;;;;;5056918;28;19920;-69
2022/10/26 00:11:18;;;;;;;;;;;20.80;51.30;;;;;;5054480;28;20354;-68
2022/10/26 00:13:45;;;;;;;;;;;20.80;51.30;;;;;;5056617;28;20324;-69
2022/10/26 00:16:12;;;;;;;;;;;20.80;51.30;;;;;;5054837;28;19920;-69
2022/10/26 00:18:39;;;;;;;;;;;20.80;51.20;;;;;;5056715;28;19990;-69
2022/10/26 00:21:06;;;;;;;;;;;20.80;51.20;;;;;;5072919;28;20057;-69
2022/10/26 00:23:33;;;;;;;;;;;20.80;51.20;;;;;;5054196;28;19927;-69
2022/10/26 00:26:00;;;;;;;;;;;20.80;51.20;;;;;;5074494;28;19921;-69
2022/10/26 00:28:28;;;;;;;;;;;20.80;51.20;;;;;;5055221;28;19966;-69
2022/10/26 00:30:55;;;;;;;;;;;20.80;51.20;;;;;;5054489;28;19920;-69
2022/10/26 00:33:21;;;;;;;;;;;20.80;51.20;;;;;;5073964;28;19970;-69
2022/10/26 00:35:48;;;;;;;;;;;20.80;51.20;;;;;;5068266;28;19924;-69
2022/10/26 00:38:15;;;;;;;;;;;20.80;51.20;;;;;;5056196;28;19924;-69
2022/10/26 00:40:43;;;;;;;;;;;20.70;51.10;;;;;;5054231;28;19928;-69
2022/10/26 00:43:13;;;;;;;;;;;20.70;51.10;;;;;;5071068;28;19920;-68
2022/10/26 00:45:41;;;;;;;;;;;20.80;51.20;;;;;;5073903;28;20057;-69
2022/10/26 00:48:10;;;;;;;;;;;20.70;51.00;;;;;;5054152;28;20231;-69
2022/10/26 00:50:37;;;;;;;;;;;20.70;51.00;;;;;;5074459;28;19920;-69
2022/10/26 00:53:03;;;;;;;;;;;20.70;51.00;;;;;;5071875;28;19966;-69
2022/10/26 00:55:31;;;;;;;;;;;20.70;51.00;;;;;;5055988;28;19921;-68
2022/10/26 00:57:58;;;;;;;;;;;20.70;50.90;;;;;;5072752;28;19931;-69
2022/10/26 01:00:25;;;;;;;;;;;20.70;50.90;;;;;;5053416;28;20358;-68
2022/10/26 01:02:53;;;;;;;;;;;20.70;50.90;;;;;;5072394;28;19921;-68
2022/10/26 01:05:20;;;;;;;;;;;20.70;50.90;;;;;;5073084;28;20358;-69
2022/10/26 01:07:46;;;;;;;;;;;20.70;50.90;;;;;;5071034;28;20341;-69
2022/10/26 01:10:14;;;;;;;;;;;20.70;50.90;;;;;;5073727;28;19942;-69
2022/10/26 01:12:40;;;;;;;;;;;20.70;50.80;;;;;;5056396;28;19921;-69
2022/10/26 01:15:07;;;;;;;;;;;20.70;50.80;;;;;;5054039;28;19971;-69
2022/10/26 01:17:37;;;;;;;;;;;20.70;50.80;;;;;;5053045;28;19924;-68
2022/10/26 01:20:25;;;;;;;;;;;20.70;50.70;;;;;;5073814;28;19955;-69
2022/10/26 01:22:54;;;;;;;;;;;20.70;50.70;;;;;;5056008;28;20400;-69
2022/10/26 01:25:26;;;;;;;;;;;20.70;50.70;;;;;;5052668;28;19920;-69
2022/10/26 01:27:53;;;;;;;;;;;20.70;50.70;;;;;;5071855;28;19956;-69
2022/10/26 01:30:21;;;;;;;;;;;20.70;50.60;;;;;;5056749;28;19924;-69
2022/10/26 01:32:52;;;;;;;;;;;20.70;50.60;;;;;;5054337;28;20019;-69
2022/10/26 01:35:19;;;;;;;;;;;20.60;50.60;;;;;;5054056;28;19925;-69
2022/10/26 01:37:47;;;;;;;;;;;20.70;50.60;;;;;;5055544;28;19920;-69
2022/10/26 01:40:16;;;;;;;;;;;20.60;50.50;;;;;;5053827;28;20424;-69
2022/10/26 01:42:44;;;;;;;;;;;20.60;50.50;;;;;;5055251;28;19955;-69
2022/10/26 01:45:10;;;;;;;;;;;20.60;50.50;;;;;;5052792;28;19924;-69
2022/10/26 01:47:38;;;;;;;;;;;20.60;50.40;;;;;;5053516;28;20019;-69
2022/10/26 01:50:06;;;;;;;;;;;20.60;50.40;;;;;;5044215;28;19990;-69
2022/10/26 01:52:32;;;;;;;;;;;20.60;50.40;;;;;;5072764;28;20432;-69
2022/10/26 01:55:00;;;;;;;;;;;20.60;50.40;;;;;;5052620;28;20340;-69
2022/10/26 01:57:27;;;;;;;;;;;20.60;50.30;;;;;;5053261;28;19920;-66
2022/10/26 01:59:59;;;;;;;;;;;20.60;50.30;;;;;;5056014;28;19968;-69
2022/10/26 02:02:32;;;;;;;;;;;20.60;50.30;;;;;;5071927;28;20003;-69
2022/10/26 02:05:17;;;;;;;;;;;20.60;50.30;;;;;;5059050;28;19924;-69
2022/10/26 02:07:48;;;;;;;;;;;20.60;50.20;;;;;;5067700;28;19943;-69
2022/10/26 02:10:18;;;;;;;;;;;20.60;50.20;;;;;;5055138;28;20353;-69
2022/10/26 02:12:45;;;;;;;;;;;20.60;50.80;;;;;;5060312;28;19925;-69
2022/10/26 02:15:14;;;;;;;;;;;20.60;50.20;;;;;;5057294;28;19921;-69
2022/10/26 02:17:43;;;;;;;;;;;20.60;50.20;;;;;;5072855;28;19970;-68
2022/10/26 02:20:11;;;;;;;;;;;20.60;50.20;;;;;;5059212;28;19946;-69
2022/10/26 02:22:39;;;;;;;;;;;20.60;50.80;;;;;;5062665;28;20282;-69
2022/10/26 02:25:07;;;;;;;;;;;20.60;50.20;;;;;;5056988;28;19920;-69
2022/10/26 02:27:35;;;;;;;;;;;20.60;50.20;;;;;;5056348;28;19966;-69
2022/10/26 02:30:01;;;;;;;;;;;20.60;50.20;;;;;;5038650;28;19921;-68
2022/10/26 02:32:29;;;;;;;;;;;20.60;50.20;;;;;;5058094;28;20017;-69
2022/10/26 02:34:56;;;;;;;;;;;20.60;50.10;;;;;;5045911;28;20043;-69
2022/10/26 02:37:22;;;;;;;;;;;20.50;50.00;;;;;;5065909;28;19921;-69
2022/10/26 02:39:49;;;;;;;;;;;20.50;50.00;;;;;;5074194;28;19963;-69
2022/10/26 02:42:17;;;;;;;;;;;20.50;50.00;;;;;;5074158;28;19921;-68
2022/10/26 02:44:46;;;;;;;;;;;20.50;50.20;;;;;;5076212;28;19920;-69
2022/10/26 02:47:15;;;;;;;;;;;20.50;50.10;;;;;;5052707;28;19921;-69
2022/10/26 02:49:42;;;;;;;;;;;20.50;50.10;;;;;;5039111;28;19947;-69
2022/10/26 02:52:10;;;;;;;;;;;20.50;50.00;;;;;;5061307;28;19924;-70
2022/10/26 02:54:40;;;;;;;;;;;20.50;50.10;;;;;;5074216;28;19920;-67
2022/10/26 02:57:08;;;;;;;;;;;20.50;50.10;;;;;;5057875;28;20336;-68
2022/10/26 02:59:36;;;;;;;;;;;20.50;50.10;;;;;;5056657;28;19920;-68
2022/10/26 03:02:03;;;;;;;;;;;20.50;50.10;;;;;;5058017;28;20011;-68
2022/10/26 03:04:30;;;;;;;;;;;20.50;50.10;;;;;;5056584;28;20393;-68
2022/10/26 03:06:57;;;;;;;;;;;20.50;50.10;;;;;;5076434;28;20023;-68
2022/10/26 03:09:24;;;;;;;;;;;20.50;50.10;;;;;;5058257;28;20350;-68
2022/10/26 03:11:50;;;;;;;;;;;20.50;50.10;;;;;;5074369;28;20014;-68
2022/10/26 03:14:17;;;;;;;;;;;20.50;50.10;;;;;;5057730;28;20350;-68
2022/10/26 03:16:45;;;;;;;;;;;20.50;50.10;;;;;;5062845;28;19920;-68
2022/10/26 03:19:12;;;;;;;;;;;20.50;50.10;;;;;;5038461;28;19960;-68
2022/10/26 03:21:41;;;;;;;;;;;20.50;50.10;;;;;;5066515;28;19921;-67
2022/10/26 03:24:07;;;;;;;;;;;20.50;50.10;;;;;;5054240;28;19920;-67
2022/10/26 03:26:34;;;;;;;;;;;20.50;50.10;;;;;;5039681;28;19947;-68
2022/10/26 03:29:01;;;;;;;;;;;20.50;50.10;;;;;;5063397;28;19935;-68
2022/10/26 03:31:28;;;;;;;;;;;20.50;50.10;;;;;;5050912;28;19921;-68
2022/10/26 03:33:58;;;;;;;;;;;20.50;50.10;;;;;;5052283;28;19924;-68
2022/10/26 03:36:24;;;;;;;;;;;20.50;50.10;;;;;;5055670;28;20024;-68
2022/10/26 03:38:51;;;;;;;;;;;20.50;50.10;;;;;;5056585;28;20034;-68
2022/10/26 03:41:18;;;;;;;;;;;20.50;50.10;;;;;;5053200;28;19924;-68
2022/10/26 03:43:44;;;;;;;;;;;20.50;50.00;;;;;;5058459;28;19974;-69
2022/10/26 03:46:11;;;;;;;;;;;20.50;50.00;;;;;;5067225;28;19921;-68
2022/10/26 03:48:38;;;;;;;;;;;20.50;50.00;;;;;;5055286;28;20303;-69
2022/10/26 03:51:06;;;;;;;;;;;20.50;50.00;;;;;;5072550;28;19924;-69
2022/10/26 03:53:33;;;;;;;;;;;20.50;50.00;;;;;;5057245;28;19924;-69
2022/10/26 03:55:59;;;;;;;;;;;20.50;50.00;;;;;;5055445;28;19924;-69
2022/10/26 03:58:26;;;;;;;;;;;20.50;50.00;;;;;;5055889;28;19928;-69
2022/10/26 04:00:53;;;;;;;;;;;20.50;50.00;;;;;;5043461;28;20011;-69
2022/10/26 04:03:20;;;;;;;;;;;20.50;50.00;;;;;;5051833;28;19939;-69
2022/10/26 04:05:46;;;;;;;;;;;20.50;50.00;;;;;;5073462;28;19954;-69
2022/10/26 04:08:15;;;;;;;;;;;20.50;50.00;;;;;;5072225;28;20015;-69
2022/10/26 04:10:41;;;;;;;;;;;20.50;50.00;;;;;;5053812;28;19952;-69
2022/10/26 04:13:11;;;;;;;;;;;20.40;49.80;;;;;;5057116;28;19969;-69
2022/10/26 04:15:38;;;;;;;;;;;20.40;49.80;;;;;;5044756;28;19985;-69
2022/10/26 04:18:04;;;;;;;;;;;20.50;49.90;;;;;;5072570;28;20015;-69
2022/10/26 04:20:32;;;;;;;;;;;20.40;49.80;;;;;;5071175;28;19921;-69
2022/10/26 04:23:01;;;;;;;;;;;20.50;49.80;;;;;;5067852;28;19973;-69
2022/10/26 04:25:29;;;;;;;;;;;20.40;49.70;;;;;;5071892;28;19927;-68
2022/10/26 04:27:56;;;;;;;;;;;20.50;49.80;;;;;;5072910;28;19920;-69
2022/10/26 04:30:23;;;;;;;;;;;20.50;49.80;;;;;;5060754;28;19921;-69
2022/10/26 04:32:50;;;;;;;;;;;20.40;49.60;;;;;;5074734;28;20374;-69
2022/10/26 04:35:16;;;;;;;;;;;20.50;49.70;;;;;;5072733;28;19921;-68
2022/10/26 04:37:43;;;;;;;;;;;20.40;49.60;;;;;;5072472;28;19920;-68
2022/10/26 04:40:10;;;;;;;;;;;20.40;49.60;;;;;;5056124;28;19982;-68
2022/10/26 04:42:41;;;;;;;;;;;20.40;49.60;;;;;;5049380;28;19978;-68
2022/10/26 04:45:09;;;;;;;;;;;20.40;49.60;;;;;;5053370;28;19921;-69
2022/10/26 04:47:36;;;;;;;;;;;20.40;49.60;;;;;;5050213;28;20016;-69
2022/10/26 04:50:02;;;;;;;;;;;20.40;49.60;;;;;;5054322;28;19925;-69
2022/10/26 04:52:29;;;;;;;;;;;20.40;49.60;;;;;;5068423;28;19928;-69
2022/10/26 04:54:56;;;;;;;;;;;20.40;49.60;;;;;;5053571;28;19974;-69
2022/10/26 04:57:23;;;;;;;;;;;20.40;49.50;;;;;;5056189;28;19938;-69
2022/10/26 04:59:51;;;;;;;;;;;20.40;49.50;;;;;;5054234;28;19921;-69
2022/10/26 05:02:19;;;;;;;;;;;20.40;49.40;;;;;;5055949;28;19920;-69
2022/10/26 05:04:46;;;;;;;;;;;20.40;49.40;;;;;;5052020;28;20021;-68
2022/10/26 05:07:13;;;;;;;;;;;20.40;49.40;;;;;;5057858;28;19972;-69
2022/10/26 05:09:40;;;;;;;;;;;20.40;49.30;;;;;;5056905;28;19967;-68
2022/10/26 05:12:07;;;;;;;;;;;20.40;49.30;;;;;;5054041;28;19920;-68
2022/10/26 05:14:34;;;;;;;;;;;20.40;49.30;;;;;;5071056;28;19921;-69
2022/10/26 05:17:02;;;;;;;;;;;20.40;49.30;;;;;;5052397;28;19928;-68
2022/10/26 05:19:29;;;;;;;;;;;20.40;49.20;;;;;;5056076;28;19966;-69
2022/10/26 05:21:55;;;;;;;;;;;20.40;49.30;;;;;;5052324;28;20325;-71
2022/10/26 05:24:22;;;;;;;;;;;20.40;49.20;;;;;;5074136;28;19920;-68
2022/10/26 05:26:49;;;;;;;;;;;20.30;49.10;;;;;;5053638;28;19921;-69
2022/10/26 05:29:15;;;;;;;;;;;20.40;49.20;;;;;;5054912;28;19932;-69
2022/10/26 05:31:42;;;;;;;;;;;20.30;49.10;;;;;;5072338;28;19967;-68
2022/10/26 05:34:11;;;;;;;;;;;20.30;49.10;;;;;;5054136;28;19921;-68
2022/10/26 05:36:37;;;;;;;;;;;20.40;49.20;;;;;;5055644;28;19920;-68
2022/10/26 05:39:04;;;;;;;;;;;20.30;49.10;;;;;;5055370;28;19927;-68
2022/10/26 05:41:31;;;;;;;;;;;20.30;49.20;;;;;;5058094;28;19932;-68
2022/10/26 05:43:58;;;;;;;;;;;20.40;49.30;;;;;;5075450;28;19920;-69
2022/10/26 05:46:24;;;;;;;;;;;20.40;49.30;;;;;;5077293;28;20397;-69
2022/10/26 05:48:51;;;;;;;;;;;20.40;49.30;;;;;;5074899;28;20948;-68
2022/10/26 05:51:19;;;;;;;;;;;20.30;49.20;;;;;;5076950;28;19928;-69
2022/10/26 05:53:47;;;;;;;;;;;20.30;49.20;;;;;;5063958;28;19920;-64
2022/10/26 05:56:16;;;;;;;;;;;20.30;49.20;;;;;;5050739;28;19931;-68
2022/10/26 05:58:43;;;;;;;;;;;20.40;49.40;;;;;;5050111;28;20008;-68
2022/10/26 06:01:12;;;;;;;;;;;20.30;49.10;;;;;;5054070;28;19924;-67
2022/10/26 06:03:43;;;;;;;;;;;20.30;49.10;;;;;;5056956;28;19943;-67
2022/10/26 06:06:09;;;;;;;;;;;20.30;49.10;;;;;;5071789;28;19920;-67
2022/10/26 06:08:38;;;;;;;;;;;20.30;49.00;;;;;;5050449;28;19920;-68
2022/10/26 06:11:06;;;;;;;;;;;20.30;49.00;;;;;;5070217;28;20461;-68
2022/10/26 06:13:33;;;;;;;;;;;20.30;49.00;;;;;;5059006;28;19921;-68
2022/10/26 06:16:03;;;;;;;;;;;20.30;49.00;;;;;;5051588;28;19943;-67
2022/10/26 06:18:34;;;;;;;;;;;20.30;49.50;;;;;;5051951;28;19997;-67
2022/10/26 06:21:09;;;;;;;;;;;20.30;48.80;;;;;;5052101;28;19925;-67
2022/10/26 06:23:45;;;;;;;;;;;20.30;48.80;;;;;;5067461;28;19932;-68
2022/10/26 06:26:15;;;;;;;;;;;20.30;48.70;;;;;;5058562;28;19935;-67
2022/10/26 06:28:43;;;;;;;;;;;20.30;48.70;;;;;;5054387;28;19924;-68
2022/10/26 06:31:10;;;;;;;;;;;20.30;48.70;;;;;;5060304;28;19925;-68
2022/10/26 06:33:36;;;;;;;;;;;20.30;48.60;;;;;;5066890;28;20328;-68
2022/10/26 06:36:06;;;;;;;;;;;20.30;48.60;;;;;;5049810;28;19928;-67
2022/10/26 06:38:34;;;;;;;;;;;20.30;48.50;;;;;;5050655;28;19932;-68
2022/10/26 06:41:02;;;;;;;;;;;20.30;48.60;;;;;;5056268;28;19972;-67
2022/10/26 06:43:29;;;;;;;;;;;20.30;48.50;;;;;;5046564;28;19959;-66
2022/10/26 06:45:58;;;;;;;;;;;20.30;48.50;;;;;;5059598;28;19921;-67
2022/10/26 06:48:27;;;;;;;;;;;20.30;48.60;;;;;;5045974;28;19920;-65
2022/10/26 06:50:54;;;;;;;;;;;20.30;48.60;;;;;;5051853;28;19927;-68
2022/10/26 06:53:22;;;;;;;;;;;20.20;48.50;;;;;;5057170;28;20023;-68
2022/10/26 06:55:49;;;;;;;;;;;20.30;48.70;;;;;;5036990;28;19936;-66
2022/10/26 06:58:17;;;;;;;;;;;20.30;48.70;;;;;;5047748;28;20405;-68
2022/10/26 07:00:45;;;;;;;;;;;20.30;49.00;;;;;;5061977;28;19921;-67
2022/10/26 07:03:11;;;;;;;;;;;20.30;48.90;;;;;;5047889;28;20133;-67
2022/10/26 07:05:38;;;;;;;;;;;20.30;48.90;;;;;;5048694;28;19928;-67
2022/10/26 07:08:05;;;;;;;;;;;20.30;49.00;;;;;;5047133;28;19966;-68
2022/10/26 07:10:33;;;;;;;;;;;20.30;49.00;;;;;;5046204;28;20349;-67
2022/10/26 07:13:00;;;;;;;;;;;20.40;49.10;;;;;;5065444;28;19921;-66
2022/10/26 07:15:29;;;;;;;;;;;20.30;49.00;;;;;;5046949;28;19979;-66
2022/10/26 07:17:56;;;;;;;;;;;20.40;49.10;;;;;;5047688;28;20011;-69
2022/10/26 07:20:23;;;;;;;;;;;20.40;49.10;;;;;;5068312;28;20397;-68
2022/10/26 07:22:53;;;;;;;;;;;20.40;49.10;;;;;;5066727;28;19943;-68
2022/10/26 07:25:20;;;;;;;;;;;20.40;49.20;;;;;;5046424;28;19920;-68
2022/10/26 07:27:47;;;;;;;;;;;20.40;49.10;;;;;;5049602;28;19926;-69
2022/10/26 07:30:14;;;;;;;;;;;20.40;49.10;;;;;;5052555;28;20019;-69
2022/10/26 07:32:42;;;;;;;;;;;20.40;49.10;;;;;;5046815;28;19932;-72
2022/10/26 07:35:09;;;;;;;;;;;20.40;49.10;;;;;;5049836;28;19933;-68
2022/10/26 07:37:36;;;;;;;;;;;20.40;49.10;;;;;;5065538;28;19973;-69
2022/10/26 07:40:03;;;;;;;;;;;20.40;49.10;;;;;;5048818;28;19933;-72
2022/10/26 07:42:30;;;;;;;;;;;20.40;49.20;;;;;;5049363;28;19959;-69
2022/10/26 07:44:57;;;;;;;;;;;20.50;49.30;;;;;;5049365;28;20018;-68
2022/10/26 07:47:24;;;;;;;;;;;20.40;49.30;;;;;;5059301;28;19928;-69
2022/10/26 07:49:52;;;;;;;;;;;20.40;49.30;;;;;;5062859;28;19927;-69
2022/10/26 07:52:19;;;;;;;;;;;20.40;49.30;;;;;;5067693;28;19932;-69
2022/10/26 07:54:46;;;;;;;;;;;20.40;49.30;;;;;;5067048;28;19920;-69
2022/10/26 07:57:12;;;;;;;;;;;20.50;49.40;;;;;;5064668;28;19925;-69
2022/10/26 07:59:39;;;;;;;;;;;20.50;49.40;;;;;;5060270;28;19931;-72
2022/10/26 08:02:07;;;;;;;;;;;20.50;49.40;;;;;;5045250;28;19924;-69
2022/10/26 08:04:33;;;;;;;;;;;20.50;49.40;;;;;;5056600;28;19920;-70
2022/10/26 08:07:02;;;;;;;;;;;20.50;49.50;;;;;;5060512;28;19927;-68
2022/10/26 08:09:29;;;;;;;;;;;20.50;49.30;;;;;;5049772;28;19931;-69
2022/10/26 08:11:55;;;;;;;;;;;20.50;49.30;;;;;;5047943;28;19946;-66
2022/10/26 08:14:22;;;;;;;;;;;20.50;49.30;;;;;;5045950;28;19943;-68
2022/10/26 08:16:51;;;;;;;;;;;20.50;49.30;;;;;;5046665;28;19935;-67
2022/10/26 08:19:18;;;;;;;;;;;20.50;49.30;;;;;;5055029;28;19921;-66
2022/10/26 08:21:45;;;;;;;;;;;20.50;49.30;;;;;;5050019;28;20418;-67
2022/10/26 08:24:13;;;;;;;;;;;20.50;49.30;;;;;;5048764;28;19928;-67
2022/10/26 08:26:40;;;;;;;;;;;20.50;49.30;;;;;;5046821;28;19920;-68
2022/10/26 08:29:06;;;;;;;;;;;20.50;49.30;;;;;;5065905;28;19920;-68
2022/10/26 08:31:33;;;;;;;;;;;20.50;49.30;;;;;;5060782;28;19947;-69
2022/10/26 08:34:00;;;;;;;;;;;20.50;49.30;;;;;;5064282;28;19931;-69
2022/10/26 08:36:27;;;;;;;;;;;20.50;49.30;;;;;;5041970;28;20394;-69
2022/10/26 08:38:54;;;;;;;;;;;20.50;49.30;;;;;;5046728;28;19925;-69
2022/10/26 08:41:24;;;;;;;;;;;20.50;49.30;;;;;;5065315;28;20291;-71
2022/10/26 08:43:52;;;;;;;;;;;20.50;49.80;;;;;;5043771;28;20022;-68
2022/10/26 08:46:19;;;;;;;;;;;20.50;49.30;;;;;;5046601;28;19927;-66
2022/10/26 08:48:47;;;;;;;;;;;20.50;49.30;;;;;;5063037;28;20356;-78
2022/10/26 08:51:15;;;;;;;;;;;20.50;49.20;;;;;;5065342;28;19920;-76
2022/10/26 08:53:43;;;;;;;;;;;20.50;49.00;;;;;;5049749;28;19929;-74
2022/10/26 08:56:11;;;;;;;;;;;20.50;48.70;;;;;;5049092;28;19920;-71
2022/10/26 08:58:40;;;;;;;;;;;20.50;48.70;;;;;;5043440;28;20274;-71
2022/10/26 09:01:08;;;;;;;;;;;20.40;48.50;;;;;;5049418;28;19925;-71
2022/10/26 09:03:34;;;;;;;;;;;20.40;48.40;;;;;;5055348;28;20409;-69
2022/10/26 09:06:05;;;;;;;;;;;20.40;49.10;;;;;;5054836;28;20381;-69
2022/10/26 09:08:34;;;;;;;;;;;20.40;48.70;;;;;;5059965;28;19921;-69
2022/10/26 09:11:02;;;;;;;;;;;20.40;48.90;;;;;;5048741;28;19952;-69
2022/10/26 09:13:37;;;;;;;;;;;20.40;49.00;;;;;;5062374;28;20021;-69
2022/10/26 09:16:06;;;;;;;;;;;20.40;49.00;;;;;;5059213;28;19921;-69
2022/10/26 09:18:35;;;;;;;;;;;20.40;49.10;;;;;;5060847;28;19924;-70
2022/10/26 09:21:06;;;;;;;;;;;20.40;49.20;;;;;;5045509;28;19998;-69
2022/10/26 09:23:54;;;;;;;;;;;20.50;49.30;;;;;;5051647;28;19931;-69
2022/10/26 09:26:24;;;;;;;;;;;20.40;49.20;;;;;;5066243;28;19925;-69
2022/10/26 09:28:52;;;;;;;;;;;20.50;49.30;;;;;;5070446;28;20378;-70
2022/10/26 09:31:20;;;;;;;;;;;20.50;49.40;;;;;;5063261;28;19925;-69
2022/10/26 09:33:47;;;;;;;;;;;20.50;49.40;;;;;;5045933;28;19920;-67
2022/10/26 09:36:15;;;;;;;;;;;20.60;49.50;;;;;;5052132;28;19924;-68
2022/10/26 09:38:43;;;;;;;;;;;20.50;49.50;;;;;;5046269;28;19946;-66
2022/10/26 09:41:20;;;;;;;;;;;20.60;49.50;;;;;;5044183;28;19964;-68
2022/10/26 09:43:48;;;;;;;;;;;20.50;49.50;;;;;;5048215;28;19932;-68
2022/10/26 09:46:15;;;;;;;;;;;20.60;49.60;;;;;;5062193;28;19920;-68
2022/10/26 09:48:45;;;;;;;;;;;20.60;49.70;;;;;;5047478;28;20007;-67
2022/10/26 09:51:12;;;;;;;;;;;20.60;49.70;;;;;;5057885;28;19927;-69
2022/10/26 09:53:38;;;;;;;;;;;20.60;49.70;;;;;;5051095;28;19974;-67
2022/10/26 09:56:06;;;;;;;;;;;20.60;49.70;;;;;;5049732;28;20039;-68
2022/10/26 09:58:34;;;;;;;;;;;20.60;49.70;;;;;;5051555;28;20354;-69
2022/10/26 10:01:01;;;;;;;;;;;20.60;49.80;;;;;;5051607;28;20290;-68
2022/10/26 10:03:28;;;;;;;;;;;20.60;49.80;;;;;;5052294;28;19924;-68
2022/10/26 10:06:10;;;;;;;;;;;20.60;49.80;;;;;;5048880;28;20014;-68
2022/10/26 10:08:37;;;;;;;;;;;20.60;49.90;;;;;;5066493;28;20019;-64
2022/10/26 10:11:05;;;;;;;;;;;20.60;49.90;;;;;;5051879;28;20364;-68
2022/10/26 10:13:32;;;;;;;;;;;20.70;50.00;;;;;;5055676;28;20010;-69
2022/10/26 10:16:02;;;;;;;;;;;20.70;50.00;;;;;;5048422;28;19932;-68
2022/10/26 10:18:29;;;;;;;;;;;20.70;50.00;;;;;;5068622;28;19975;-69
2022/10/26 10:20:56;;;;;;;;;;;20.70;50.00;;;;;;5051641;28;19924;-68
2022/10/26 10:23:26;;;;;;;;;;;20.70;50.70;;;;;;5057897;28;19967;-69
2022/10/26 10:26:04;;;;;;;;;;;20.70;50.30;;;;;;5047674;28;19927;-70
2022/10/26 10:28:32;;;;;;;;;;;20.70;50.20;;;;;;5060698;28;19924;-65
2022/10/26 10:30:59;;;;;;;;;;;20.70;50.20;;;;;;5044089;28;19967;-64
2022/10/26 10:33:33;;;;;;;;;;;20.70;50.20;;;;;;5068164;28;19928;-64
2022/10/26 10:36:00;;;;;;;;;;;20.70;50.30;;;;;;5051964;28;19920;-64
2022/10/26 10:38:28;;;;;;;;;;;20.70;50.30;;;;;;5060487;28;19939;-65
2022/10/26 10:40:56;;;;;;;;;;;20.70;50.30;;;;;;5060563;28;19955;-64
2022/10/26 10:43:22;;;;;;;;;;;20.70;50.40;;;;;;5051438;28;19921;-64
2022/10/26 10:45:50;;;;;;;;;;;20.80;50.50;;;;;;5066783;28;19921;-63
2022/10/26 10:48:19;;;;;;;;;;;20.80;50.60;;;;;;5049616;28;19986;-66
2022/10/26 10:50:51;;;;;;;;;;;20.80;50.60;;;;;;5046369;28;19936;-64
2022/10/26 10:53:19;;;;;;;;;;;20.80;50.60;;;;;;5059325;28;19972;-67
2022/10/26 10:56:01;;;;;;;;;;;20.80;50.60;;;;;;5060009;28;19927;-66
2022/10/26 10:58:29;;;;;;;;;;;20.80;50.70;;;;;;5045587;28;20313;-67
2022/10/26 11:00:56;;;;;;;;;;;20.80;50.70;;;;;;5050006;28;19921;-68
2022/10/26 11:03:24;;;;;;;;;;;20.80;50.80;;;;;;5050709;28;19920;-67
2022/10/26 11:06:00;;;;;;;;;;;20.80;50.80;;;;;;5065896;28;19966;-67
2022/10/26 11:08:27;;;;;;;;;;;20.80;50.80;;;;;;5047420;28;19932;-66
2022/10/26 11:10:57;;;;;;;;;;;20.80;50.90;;;;;;5059991;28;19925;-67
2022/10/26 11:13:25;;;;;;;;;;;20.80;50.90;;;;;;5042034;28;19952;-67
2022/10/26 11:15:52;;;;;;;;;;;20.80;50.90;;;;;;5049421;28;19927;-67
2022/10/26 11:18:19;;;;;;;;;;;20.90;51.00;;;;;;5059376;28;19955;-68
2022/10/26 11:20:47;;;;;;;;;;;20.90;51.10;;;;;;5049297;28;19990;-70
2022/10/26 11:23:15;;;;;;;;;;;20.90;51.10;;;;;;5049925;28;20079;-67
2022/10/26 11:25:44;;;;;;;;;;;20.90;51.20;;;;;;5054122;28;19959;-68
2022/10/26 11:28:14;;;;;;;;;;;20.90;51.20;;;;;;5054193;28;19925;-67
2022/10/26 11:30:42;;;;;;;;;;;20.90;51.20;;;;;;5044467;28;19933;-68
2022/10/26 11:33:10;;;;;;;;;;;20.90;51.20;;;;;;5048857;28;19920;-67
2022/10/26 11:35:37;;;;;;;;;;;20.90;51.20;;;;;;5045452;28;20014;-67
2022/10/26 11:38:04;;;;;;;;;;;20.90;51.30;;;;;;5052313;28;19924;-67
2022/10/26 11:40:34;;;;;;;;;;;20.90;51.30;;;;;;5067621;28;19935;-67
2022/10/26 11:43:04;;;;;;;;;;;20.90;51.30;;;;;;5047282;28;20019;-68
2022/10/26 11:45:32;;;;;;;;;;;20.90;51.30;;;;;;5055092;28;19924;-68
2022/10/26 11:48:01;;;;;;;;;;;20.90;51.40;;;;;;5052999;28;19920;-66
2022/10/26 11:50:29;;;;;;;;;;;21.00;51.50;;;;;;5062112;28;19931;-68
2022/10/26 11:52:57;;;;;;;;;;;21.00;51.60;;;;;;5060662;28;19928;-68
2022/10/26 11:55:24;;;;;;;;;;;21.00;51.60;;;;;;5062318;28;19940;-67
2022/10/26 11:57:52;;;;;;;;;;;21.00;52.10;;;;;;5068720;28;19986;-68
2022/10/26 12:00:20;;;;;;;;;;;21.00;51.50;;;;;;5048728;28;19920;-68
2022/10/26 12:02:49;;;;;;;;;;;21.00;51.60;;;;;;5063092;28;19921;-68
2022/10/26 12:05:20;;;;;;;;;;;21.00;51.60;;;;;;5047000;28;19928;-69
2022/10/26 12:07:47;;;;;;;;;;;21.00;51.60;;;;;;5057052;28;20001;-70
2022/10/26 12:10:19;;;;;;;;;;;21.00;51.60;;;;;;5047187;28;19928;-68
2022/10/26 12:12:46;;;;;;;;;;;21.00;51.70;;;;;;5046594;28;19952;-68
2022/10/26 12:15:18;;;;;;;;;;;21.00;51.60;;;;;;5045350;28;19921;-68
2022/10/26 12:17:46;;;;;;;;;;;21.10;51.70;;;;;;5060349;28;19982;-71
2022/10/26 12:20:25;;;;;;;;;;;21.10;51.70;;;;;;5065461;28;20282;-67
2022/10/26 12:22:51;;;;;;;;;;;21.10;51.70;;;;;;5057533;28;19929;-67
2022/10/26 12:25:19;;;;;;;;;;;21.10;51.80;;;;;;5047365;28;20007;-67
2022/10/26 12:27:50;;;;;;;;;;;21.10;51.80;;;;;;5049281;28;19927;-68
2022/10/26 12:30:23;;;;;;;;;;;21.10;51.80;;;;;;5044463;28;19988;-64
2022/10/26 12:32:50;;;;;;;;;;;21.10;51.80;;;;;;5048974;28;19928;-65
2022/10/26 12:35:32;;;;;;;;;;;21.10;51.90;;;;;;5045734;28;19954;-69
2022/10/26 12:38:00;;;;;;;;;;;21.10;52.00;;;;;;5039020;28;19999;-69
2022/10/26 12:40:40;;;;;;;;;;;21.10;52.00;;;;;;5062282;28;20335;-70
2022/10/26 12:43:26;;;;;;;;;;;21.10;52.00;;;;;;5045961;28;19943;-68
2022/10/26 12:46:07;;;;;;;;;;;21.10;52.00;;;;;;5048854;28;19920;-72
2022/10/26 12:48:39;;;;;;;;;;;21.10;52.00;;;;;;5046587;28;19991;-69
2022/10/26 12:51:18;;;;;;;;;;;21.10;52.00;;;;;;5047349;28;20336;-64
2022/10/26 12:53:50;;;;;;;;;;;21.10;52.00;;;;;;5068734;28;19947;-69
2022/10/26 12:56:18;;;;;;;;;;;21.10;52.10;;;;;;5048699;28;19924;-68
2022/10/26 12:58:57;;;;;;;;;;;21.10;52.00;;;;;;5067649;28;22848;-67
2022/10/26 13:01:54;;;;;;;;;;;21.20;52.10;;;;;;5065623;28;19947;-67
2022/10/26 13:04:47;;;;;;;;;;;21.20;52.10;;;;;;4981067;28;20013;-68
2022/10/26 13:07:18;;;;;;;;;;;21.20;52.10;;;;;;5043871;28;19925;-69
2022/10/26 13:09:52;;;;;;;;;;;21.20;52.20;;;;;;5048982;28;19959;-69
2022/10/26 13:12:19;;;;;;;;;;;21.20;52.20;;;;;;5049139;28;19924;-68
2022/10/26 13:14:53;;;;;;;;;;;21.20;52.20;;;;;;5061538;28;19925;-69
2022/10/26 13:17:22;;;;;;;;;;;21.20;52.20;;;;;;5049919;28;19920;-69
2022/10/26 13:19:49;;;;;;;;;;;21.20;52.20;;;;;;5049627;28;19928;-67
2022/10/26 13:22:19;;;;;;;;;;;21.20;52.20;;;;;;5067563;28;19931;-67
2022/10/26 13:24:47;;;;;;;;;;;21.20;52.20;;;;;;5048006;28;19968;-67
2022/10/26 13:27:28;;;;;;;;;;;21.20;52.20;;;;;;5051190;28;19921;-66
2022/10/26 13:30:13;;;;;;;;;;;21.20;52.20;;;;;;5057014;28;19920;-67
2022/10/26 13:32:40;;;;;;;;;;;21.20;52.20;;;;;;5044257;28;20013;-69
2022/10/26 13:35:09;;;;;;;;;;;21.20;52.30;;;;;;5046055;28;19924;-67
2022/10/26 13:37:36;;;;;;;;;;;21.20;52.30;;;;;;5062394;28;19971;-68
2022/10/26 13:40:03;;;;;;;;;;;21.20;52.30;;;;;;5043925;28;19936;-69
2022/10/26 13:42:33;;;;;;;;;;;21.20;52.30;;;;;;5045900;28;19942;-67
2022/10/26 13:45:01;;;;;;;;;;;21.20;52.30;;;;;;5048494;28;20019;-72
2022/10/26 13:47:28;;;;;;;;;;;21.20;52.30;;;;;;5044085;28;19925;-71
2022/10/26 13:49:55;;;;;;;;;;;21.20;52.30;;;;;;5047631;28;20012;-68
2022/10/26 13:52:23;;;;;;;;;;;21.20;52.30;;;;;;5045946;28;19986;-70
2022/10/26 13:54:51;;;;;;;;;;;21.20;52.30;;;;;;5049049;28;20362;-74
2022/10/26 13:57:19;;;;;;;;;;;21.30;52.40;;;;;;5047699;28;19928;-70
2022/10/26 13:59:49;;;;;;;;;;;21.20;52.30;;;;;;5064040;28;19983;-73
2022/10/26 14:02:16;;;;;;;;;;;21.30;52.50;;;;;;5045134;28;19921;-71
2022/10/26 14:04:46;;;;;;;;;;;21.30;52.50;;;;;;5050232;28;19924;-71
2022/10/26 14:07:15;;;;;;;;;;;21.30;52.50;;;;;;5050764;28;19920;-72
2022/10/26 14:09:42;;;;;;;;;;;21.30;52.50;;;;;;5047842;28;19932;-72
2022/10/26 14:12:09;;;;;;;;;;;21.30;52.50;;;;;;5051257;28;19993;-70
2022/10/26 14:14:36;;;;;;;;;;;21.30;52.50;;;;;;5046885;28;19921;-74
2022/10/26 14:17:05;;;;;;;;;;;21.30;52.50;;;;;;5052968;28;19924;-71
2022/10/26 14:19:40;;;;;;;;;;;21.30;52.50;;;;;;5051532;28;19920;-72
2022/10/26 14:22:06;;;;;;;;;;;21.30;52.50;;;;;;5052288;28;19924;-70
2022/10/26 14:24:34;;;;;;;;;;;21.30;52.50;;;;;;5069962;28;19927;-73